Kings Mountain, North Carolina
Current Conditions -  °F | °C
As of 12:54 PM on Monday 26 Jan 2015 (Local Time) from KAKH Reporting Station
Overcast Overcast  
Wind Chill: 50°   Ceiling: 9500
Heat Index: 50°   Visibility: 10mi
Dew Point: 35°   Wind: 5mph
Humidity: 57%   Direction: NA
Pressure: 29.64"   Gusts: NA
Location:  35.24°N, 81.34°W
Report Text: KAKH 261754Z AUTO VRB04KT 10SM FEW060 OVC095 10/02 A2964 RMK AO2 SLP036 T01000017 10100 20028 58004
Loading
Personal Weather Stations






























Interactive Weather Map New forecast layout! Learn more

10-Day Weather Forecast

Advertisements
Track Severe Weather on mobile